< < Back
Terminal Aerodrome Forecast


Current Version              Previous Versions:   1  2  3  4  5  6  7  8  9  

Terminal Aerodrome Forecast

520
FTUS42 KILM 282300
TAFFLO
TAF
KFLO 282320Z 2900/2924 00000KT P6SM FEW100
     FM291500 20006KT P6SM SCT200=

Latest METAR

277
SAUS70 KWBC 290100 RRF
MTRFLO
METAR KFLO 290053Z 00000KT 10SM CLR 02/M03 A3034 RMK AO2 SLP274
T00221028


USA.gov is the U.S. government's official web portal to all federal, state and local government web resources and services.